Time;durP1;ratioP1;P1;durP2;ratioP2;P2;SDS_P1;SDS_P2;PMS_P1;PMS_P2;Temp;Humidity;BMP_temperature;BMP_pressure;BME280_temperature;BME280_humidity;BME280_pressure;Samples;Min_cycle;Max_cycle;Signal;HPM_P1;HPM_P2
2021/01/25 00:00:10;;;;;;;8.23;2.17;;;2.20;99.90;;;;;;5030826;28;20038;-62
2021/01/25 00:02:56;;;;;;;3.88;2.05;;;2.20;99.90;;;;;;5032422;28;20552;-62
2021/01/25 00:05:42;;;;;;;4.32;2.55;;;2.20;99.90;;;;;;5031362;28;20046;-62
2021/01/25 00:08:29;;;;;;;4.82;2.38;;;2.20;99.90;;;;;;5032616;28;20049;-62
2021/01/25 00:11:15;;;;;;;3.95;2.40;;;2.20;99.90;;;;;;5030709;28;20038;-62
2021/01/25 00:14:01;;;;;;;4.95;2.25;;;2.40;99.90;;;;;;5030891;28;20470;-62
2021/01/25 00:16:47;;;;;;;4.00;2.10;;;2.40;99.90;;;;;;5031268;28;20104;-62
2021/01/25 00:19:33;;;;;;;6.75;3.08;;;2.20;99.90;;;;;;5016061;28;20099;-62
2021/01/25 00:22:19;;;;;;;5.22;2.47;;;2.00;99.90;;;;;;5031301;28;20030;-62
2021/01/25 00:25:06;;;;;;;6.75;3.13;;;2.00;99.90;;;;;;5030828;28;20505;-62
2021/01/25 00:27:52;;;;;;;4.13;2.13;;;2.00;99.90;;;;;;5031057;28;20385;-62
2021/01/25 00:30:38;;;;;;;4.97;2.63;;;1.90;99.90;;;;;;5031075;28;20037;-62
2021/01/25 00:33:25;;;;;;;6.97;3.30;;;1.90;99.90;;;;;;5031209;28;20459;-62
2021/01/25 00:36:11;;;;;;;5.05;2.65;;;1.90;99.90;;;;;;5032201;28;20041;-62
2021/01/25 00:38:57;;;;;;;9.32;3.17;;;1.80;99.90;;;;;;5030627;28;20041;-62
2021/01/25 00:41:43;;;;;;;7.18;3.20;;;1.80;99.90;;;;;;5030425;28;20079;-62
2021/01/25 00:44:29;;;;;;;5.78;2.83;;;1.80;99.90;;;;;;5031171;28;20038;-62
2021/01/25 00:47:15;;;;;;;7.18;3.40;;;1.80;99.90;;;;;;5031812;28;20092;-62
2021/01/25 00:50:03;;;;;;;5.88;2.70;;;1.80;99.90;;;;;;5031103;28;20041;-62
2021/01/25 00:52:50;;;;;;;6.22;3.17;;;1.80;99.90;;;;;;5030315;28;20026;-62
2021/01/25 00:55:36;;;;;;;10.52;3.63;;;1.80;99.90;;;;;;5030781;28;20073;-62
2021/01/25 00:58:22;;;;;;;8.13;3.55;;;1.80;99.90;;;;;;5030994;28;20057;-62
2021/01/25 01:01:08;;;;;;;6.47;2.70;;;1.80;99.90;;;;;;5030804;28;20025;-62
2021/01/25 01:03:54;;;;;;;5.70;3.08;;;1.80;99.90;;;;;;5030392;28;20124;-61
2021/01/25 01:06:41;;;;;;;6.20;3.08;;;1.80;99.90;;;;;;5030434;28;20095;-61
2021/01/25 01:09:27;;;;;;;6.05;2.97;;;1.80;99.90;;;;;;5030353;28;20092;-62
2021/01/25 01:12:13;;;;;;;10.25;3.08;;;1.90;99.90;;;;;;5016674;28;20410;-62
2021/01/25 01:15:00;;;;;;;8.77;2.88;;;1.70;99.90;;;;;;5030714;28;20061;-62
2021/01/25 01:17:46;;;;;;;6.25;3.25;;;1.80;99.90;;;;;;5034842;28;20041;-62
2021/01/25 01:20:32;;;;;;;6.53;3.22;;;1.70;99.90;;;;;;5035475;28;20412;-61
2021/01/25 01:23:18;;;;;;;8.25;3.22;;;1.70;99.90;;;;;;5034306;28;20033;-62
2021/01/25 01:26:04;;;;;;;7.80;3.60;;;1.60;99.90;;;;;;5035398;28;20072;-61
2021/01/25 01:28:50;;;;;;;8.70;3.83;;;1.70;99.90;;;;;;5034733;28;20561;-61
2021/01/25 01:31:36;;;;;;;6.43;3.15;;;1.70;99.90;;;;;;5033487;28;20509;-62
2021/01/25 01:34:22;;;;;;;8.13;2.58;;;1.60;99.90;;;;;;5034761;28;20025;-61
2021/01/25 01:37:08;;;;;;;6.45;3.42;;;1.60;99.90;;;;;;5034043;28;20029;-62
2021/01/25 01:39:54;;;;;;;7.30;3.05;;;1.50;99.90;;;;;;5032755;28;20471;-62
2021/01/25 01:42:40;;;;;;;6.80;2.67;;;1.50;99.90;;;;;;5033152;28;20034;-62
2021/01/25 01:45:26;;;;;;;6.85;3.25;;;1.60;99.90;;;;;;5033891;28;20482;-62
2021/01/25 01:48:14;;;;;;;7.90;3.53;;;1.50;99.90;;;;;;5034052;28;20045;-62
2021/01/25 01:51:00;;;;;;;6.55;3.13;;;1.50;99.90;;;;;;5020784;28;20037;-60
2021/01/25 01:53:46;;;;;;;6.25;3.30;;;1.60;99.90;;;;;;5019580;28;20088;-61
2021/01/25 01:56:34;;;;;;;9.45;3.45;;;1.60;99.90;;;;;;5033472;28;20079;-62
2021/01/25 01:59:20;;;;;;;6.60;3.30;;;1.50;99.90;;;;;;5033695;28;20568;-62
2021/01/25 02:02:06;;;;;;;7.95;3.67;;;1.50;99.90;;;;;;5033416;28;20375;-62
2021/01/25 02:04:52;;;;;;;8.15;3.42;;;1.50;99.90;;;;;;5033949;28;20037;-62
2021/01/25 02:07:44;;;;;;;8.90;3.53;;;1.50;99.90;;;;;;5033503;28;20022;-62
2021/01/25 02:10:30;;;;;;;6.22;2.88;;;1.60;99.90;;;;;;5019738;28;20398;-62
2021/01/25 02:13:17;;;;;;;5.63;3.28;;;1.60;99.90;;;;;;5033604;28;20039;-62
2021/01/25 02:16:04;;;;;;;6.00;3.17;;;1.70;99.90;;;;;;5018409;28;20045;-62
2021/01/25 02:18:50;;;;;;;5.85;3.70;;;1.60;99.90;;;;;;5031977;28;20053;-63
2021/01/25 02:21:42;;;;;;;7.38;3.28;;;1.60;99.90;;;;;;5018647;28;20040;-63
2021/01/25 02:24:39;;;;;;;7.90;3.42;;;1.60;99.90;;;;;;5019180;28;20041;-62
2021/01/25 02:27:42;;;;;;;5.90;3.15;;;1.60;99.90;;;;;;5018838;28;20068;-62
2021/01/25 02:30:28;;;;;;;7.22;3.95;;;1.60;99.90;;;;;;5019034;28;20061;-62
2021/01/25 02:33:18;;;;;;;7.03;3.85;;;1.80;99.90;;;;;;5032477;28;20414;-62
2021/01/25 02:36:04;;;;;;;8.00;4.00;;;1.80;99.90;;;;;;5032922;28;20589;-62
2021/01/25 02:38:53;;;;;;;8.85;3.72;;;1.60;99.90;;;;;;5033775;28;20038;-62
2021/01/25 02:41:40;;;;;;;9.95;4.80;;;1.50;99.90;;;;;;5018617;28;20402;-62
2021/01/25 02:44:28;;;;;;;9.70;4.45;;;1.50;99.90;;;;;;5018110;28;20402;-61
2021/01/25 02:47:17;;;;;;;5.65;3.53;;;1.70;99.90;;;;;;5019402;28;20402;-62
2021/01/25 02:50:05;;;;;;;7.80;4.28;;;1.70;99.90;;;;;;5033165;28;20069;-62
2021/01/25 02:52:51;;;;;;;9.27;3.83;;;1.70;99.90;;;;;;5032917;28;20030;-62
2021/01/25 02:55:37;;;;;;;8.70;3.90;;;1.60;99.90;;;;;;5033034;28;20041;-62
2021/01/25 02:58:25;;;;;;;8.07;4.65;;;1.50;99.90;;;;;;5004605;28;20120;-62
2021/01/25 03:01:11;;;;;;;9.63;4.40;;;1.50;99.90;;;;;;5017859;28;20394;-62
2021/01/25 03:03:58;;;;;;;11.68;4.50;;;1.70;99.90;;;;;;5032390;28;20060;-62
2021/01/25 03:06:45;;;;;;;6.00;3.72;;;1.90;99.90;;;;;;5018548;28;20470;-62
2021/01/25 03:09:33;;;;;;;6.70;3.80;;;2.00;99.90;;;;;;5032891;28;20113;-62
2021/01/25 03:12:19;;;;;;;9.43;3.80;;;1.90;99.90;;;;;;5032327;28;20073;-62
2021/01/25 03:15:09;;;;;;;10.88;4.18;;;1.80;99.90;;;;;;5018164;28;20029;-63
2021/01/25 03:17:56;;;;;;;9.35;4.30;;;1.90;99.90;;;;;;5032618;28;20395;-61
2021/01/25 03:20:42;;;;;;;7.07;3.90;;;1.90;99.90;;;;;;5032039;28;20444;-61
2021/01/25 03:23:28;;;;;;;7.28;3.92;;;1.90;99.90;;;;;;5032080;28;20029;-62
2021/01/25 03:26:14;;;;;;;7.43;3.95;;;1.90;99.90;;;;;;5031324;28;20030;-61
2021/01/25 03:29:00;;;;;;;6.57;4.07;;;1.90;99.90;;;;;;5030981;28;20481;-62
2021/01/25 03:31:46;;;;;;;10.43;4.07;;;1.90;99.90;;;;;;5031905;28;20116;-62
2021/01/25 03:34:32;;;;;;;8.20;4.22;;;1.80;99.90;;;;;;5032063;28;20436;-62
2021/01/25 03:37:18;;;;;;;9.50;3.90;;;1.80;99.90;;;;;;5031350;28;20042;-62
2021/01/25 03:40:07;;;;;;;8.07;4.65;;;1.90;99.90;;;;;;5030958;28;20037;-62
2021/01/25 03:42:53;;;;;;;5.88;3.58;;;1.90;99.90;;;;;;5031113;28;20033;-62
2021/01/25 03:45:39;;;;;;;7.82;4.05;;;1.90;99.90;;;;;;5032421;28;20145;-62
2021/01/25 03:48:25;;;;;;;6.65;3.55;;;1.90;99.90;;;;;;5031181;28;20040;-62
2021/01/25 03:51:11;;;;;;;7.15;3.83;;;2.00;99.90;;;;;;5031050;28;20091;-62
2021/01/25 03:53:57;;;;;;;7.38;4.00;;;2.00;99.90;;;;;;5030797;28;20033;-61
2021/01/25 03:56:44;;;;;;;8.85;3.47;;;2.00;99.90;;;;;;5032050;28;20228;-62
2021/01/25 03:59:30;;;;;;;10.10;3.60;;;2.00;99.90;;;;;;5031505;28;20474;-62
2021/01/25 04:02:16;;;;;;;6.03;3.10;;;2.00;99.90;;;;;;5017360;28;20198;-62
2021/01/25 04:05:03;;;;;;;8.35;3.28;;;1.80;99.90;;;;;;5030807;28;20041;-62
2021/01/25 04:07:49;;;;;;;10.90;3.35;;;1.90;99.90;;;;;;5031477;28;20049;-62
2021/01/25 04:10:35;;;;;;;8.63;3.20;;;1.90;99.90;;;;;;5030899;28;20044;-62
2021/01/25 04:13:22;;;;;;;7.72;3.40;;;1.80;99.90;;;;;;5032003;28;20496;-62
2021/01/25 04:16:08;;;;;;;9.02;3.78;;;1.70;99.90;;;;;;5030774;28;20482;-62
2021/01/25 04:18:54;;;;;;;5.05;2.83;;;1.60;99.90;;;;;;5031625;28;20037;-62
2021/01/25 04:21:40;;;;;;;6.88;3.00;;;1.70;99.90;;;;;;5031938;28;20033;-62
2021/01/25 04:24:26;;;;;;;7.57;3.70;;;1.70;99.90;;;;;;5031936;28;20112;-62
2021/01/25 04:27:13;;;;;;;6.22;3.17;;;1.70;99.90;;;;;;5018131;28;20041;-62
2021/01/25 04:29:59;;;;;;;7.25;3.63;;;1.70;99.90;;;;;;5030660;28;20048;-62
2021/01/25 04:32:45;;;;;;;8.60;3.20;;;1.80;99.90;;;;;;5030184;28;20048;-62
2021/01/25 04:35:33;;;;;;;6.65;3.78;;;1.60;99.90;;;;;;5030797;28;20034;-61
2021/01/25 04:38:19;;;;;;;7.70;3.63;;;1.60;99.90;;;;;;5030843;28;20038;-61
2021/01/25 04:41:06;;;;;;;7.07;3.60;;;1.60;99.90;;;;;;4993819;28;20128;-62
2021/01/25 04:43:55;;;;;;;5.22;3.10;;;1.70;99.90;;;;;;5024771;28;20594;-61
2021/01/25 04:46:43;;;;;;;5.47;3.25;;;1.70;99.90;;;;;;5028309;28;20398;-61
2021/01/25 04:49:32;;;;;;;5.88;3.30;;;1.80;99.90;;;;;;5017015;28;20037;-62
2021/01/25 04:52:18;;;;;;;5.55;3.30;;;1.80;99.90;;;;;;5034771;28;20030;-63
2021/01/25 04:55:06;;;;;;;10.55;3.83;;;1.70;99.90;;;;;;5034142;28;20509;-61
2021/01/25 04:57:54;;;;;;;6.65;3.28;;;1.60;99.90;;;;;;5033718;28;20499;-60
2021/01/25 05:00:41;;;;;;;8.32;4.18;;;1.50;99.90;;;;;;5007149;28;20462;-60
2021/01/25 05:03:28;;;;;;;8.52;3.47;;;1.50;99.90;;;;;;5020373;28;20445;-60
2021/01/25 05:06:14;;;;;;;6.88;3.50;;;1.40;99.90;;;;;;5034680;28;20037;-60
2021/01/25 05:09:01;;;;;;;5.13;3.53;;;1.40;99.90;;;;;;5032939;28;20490;-59
2021/01/25 05:12:01;;;;;;;6.05;3.53;;;1.30;99.90;;;;;;5035226;28;20045;-60
2021/01/25 05:14:47;;;;;;;7.67;4.40;;;1.30;99.90;;;;;;5034762;28;20037;-60
2021/01/25 05:17:35;;;;;;;6.72;4.07;;;1.20;99.90;;;;;;5035392;28;20072;-60
2021/01/25 05:20:29;;;;;;;7.85;3.60;;;1.10;99.90;;;;;;5035783;28;20045;-59
2021/01/25 05:23:17;;;;;;;10.55;4.28;;;1.20;99.90;;;;;;5034510;28;20581;-61
2021/01/25 05:26:10;;;;;;;7.63;4.03;;;1.10;99.90;;;;;;5035284;28;20029;-61
2021/01/25 05:28:56;;;;;;;8.50;3.83;;;1.20;99.90;;;;;;5034374;28;20071;-61
2021/01/25 05:31:50;;;;;;;9.10;4.15;;;1.20;99.90;;;;;;5034182;28;20120;-61
2021/01/25 05:34:36;;;;;;;7.07;3.92;;;1.20;99.90;;;;;;5034601;28;20049;-62
2021/01/25 05:37:22;;;;;;;7.75;4.35;;;1.20;99.90;;;;;;5036082;28;20035;-62
2021/01/25 05:40:14;;;;;;;9.52;5.10;;;1.20;99.90;;;;;;5034808;28;20037;-61
2021/01/25 05:43:10;;;;;;;7.72;4.15;;;1.20;99.90;;;;;;5033886;28;20104;-61
2021/01/25 05:46:09;;;;;;;10.80;5.35;;;1.10;99.90;;;;;;5020996;28;20513;-61
2021/01/25 05:48:59;;;;;;;8.70;4.18;;;1.10;99.90;;;;;;5034235;28;20033;-59
2021/01/25 05:51:45;;;;;;;8.88;4.78;;;1.10;99.90;;;;;;5035019;28;20033;-60
2021/01/25 05:54:31;;;;;;;8.93;5.00;;;1.00;99.90;;;;;;5034982;28;20120;-60
2021/01/25 05:57:17;;;;;;;11.90;5.60;;;1.10;99.90;;;;;;5034390;28;20152;-61
2021/01/25 06:00:04;;;;;;;10.25;5.50;;;1.10;99.90;;;;;;5033509;28;20041;-60
2021/01/25 06:02:52;;;;;;;10.57;5.65;;;1.00;99.90;;;;;;5033893;28;20041;-61
2021/01/25 06:05:42;;;;;;;9.85;4.85;;;1.00;99.90;;;;;;5033889;28;20072;-59
2021/01/25 06:08:59;;;;;;;13.82;6.18;;;0.90;99.90;;;;;;5019616;28;20037;-59
2021/01/25 06:11:46;;;;;;;11.18;5.38;;;0.90;99.90;;;;;;5033828;28;20049;-59
2021/01/25 06:14:54;;;;;;;12.00;6.03;;;0.70;99.90;;;;;;5033830;28;20037;-58
2021/01/25 06:17:40;;;;;;;16.20;6.85;;;0.80;99.90;;;;;;5018638;28;20069;-57
2021/01/25 06:20:31;;;;;;;11.05;6.72;;;0.80;99.90;;;;;;5033672;28;20465;-57
2021/01/25 06:23:17;;;;;;;12.05;6.85;;;0.80;99.90;;;;;;5018718;28;20488;-59
2021/01/25 06:26:05;;;;;;;11.55;5.88;;;0.80;99.90;;;;;;5036674;28;20120;-58
2021/01/25 06:28:52;;;;;;;10.32;6.53;;;0.80;99.90;;;;;;5052826;28;20489;-59
2021/01/25 06:31:40;;;;;;;11.15;7.07;;;0.90;99.90;;;;;;5053170;28;20032;-58
2021/01/25 06:34:28;;;;;;;13.25;7.43;;;0.80;99.90;;;;;;5037217;28;20083;-59
2021/01/25 06:37:15;;;;;;;12.93;6.72;;;0.80;99.90;;;;;;5012144;28;20042;-59
2021/01/25 06:40:11;;;;;;;11.88;7.20;;;0.70;99.90;;;;;;4998690;28;20030;-59
2021/01/25 06:42:57;;;;;;;18.92;8.25;;;0.80;99.90;;;;;;5013820;28;20077;-57
2021/01/25 06:45:46;;;;;;;13.65;7.97;;;0.90;99.90;;;;;;5013454;28;20034;-59
2021/01/25 06:48:34;;;;;;;15.65;7.45;;;1.00;99.90;;;;;;5031097;28;20103;-59
2021/01/25 06:51:21;;;;;;;13.85;7.30;;;1.00;99.90;;;;;;5018567;28;20041;-58
2021/01/25 06:54:12;;;;;;;14.75;7.80;;;1.10;99.90;;;;;;5032522;28;20494;-57
2021/01/25 06:56:59;;;;;;;;;;;1.10;99.90;;;;;;5019701;28;20505;-58
2021/01/25 06:59:49;;;;;;;14.80;8.10;;;0.90;99.90;;;;;;5032951;28;20376;-57
2021/01/25 07:02:58;;;;;;;16.67;9.88;;;1.00;99.90;;;;;;5018644;28;20044;-57
2021/01/25 07:05:44;;;;;;;16.67;9.10;;;1.00;99.90;;;;;;5031804;28;20124;-57
2021/01/25 07:08:31;;;;;;;16.23;8.95;;;0.90;99.90;;;;;;5033504;28;20037;-57
2021/01/25 07:11:18;;;;;;;14.02;8.40;;;1.00;99.90;;;;;;5017988;28;20037;-58
2021/01/25 07:14:05;;;;;;;16.75;8.52;;;1.10;99.90;;;;;;5016611;28;20033;-58
2021/01/25 07:16:53;;;;;;;17.30;8.85;;;1.00;99.90;;;;;;5017453;28;20041;-58
2021/01/25 07:19:40;;;;;;;15.98;8.93;;;1.00;99.90;;;;;;5033199;28;20513;-58
2021/01/25 07:22:28;;;;;;;20.42;9.20;;;1.00;99.90;;;;;;5031934;28;20033;-59
2021/01/25 07:25:15;;;;;;;16.45;8.32;;;1.00;99.90;;;;;;5017840;28;20509;-60
2021/01/25 07:28:03;;;;;;;14.75;8.48;;;1.00;99.90;;;;;;5018598;28;20033;-59
2021/01/25 07:30:50;;;;;;;16.65;9.60;;;0.90;99.90;;;;;;5031238;28;20113;-60
2021/01/25 07:33:37;;;;;;;16.65;9.00;;;0.90;99.90;;;;;;5032146;28;20120;-57
2021/01/25 07:36:23;;;;;;;13.77;8.77;;;1.00;99.90;;;;;;5031158;28;20041;-58
2021/01/25 07:39:16;;;;;;;17.05;8.88;;;0.90;99.90;;;;;;5031210;28;20041;-56
2021/01/25 07:42:02;;;;;;;14.20;8.63;;;0.90;99.90;;;;;;5031624;28;20088;-57
2021/01/25 07:44:49;;;;;;;15.20;8.40;;;0.90;99.90;;;;;;5031819;28;20037;-58
2021/01/25 07:47:36;;;;;;;17.33;8.85;;;1.00;99.90;;;;;;5017233;28;20391;-57
2021/01/25 07:50:22;;;;;;;15.93;8.68;;;1.00;99.90;;;;;;5030499;28;20048;-58
2021/01/25 07:53:08;;;;;;;15.98;8.80;;;1.10;99.90;;;;;;5032451;28;20096;-58
2021/01/25 07:55:54;;;;;;;15.10;8.45;;;1.00;99.90;;;;;;5030887;28;20060;-58
2021/01/25 07:58:40;;;;;;;21.52;9.45;;;1.00;99.90;;;;;;5031861;28;20037;-59
2021/01/25 08:01:28;;;;;;;15.50;9.27;;;1.00;99.90;;;;;;5031804;28;20057;-55
2021/01/25 08:04:21;;;;;;;19.55;9.85;;;1.10;99.90;;;;;;5031608;28;20037;-58
2021/01/25 08:07:08;;;;;;;20.05;10.30;;;1.00;99.90;;;;;;5016996;28;20064;-55
2021/01/25 08:09:55;;;;;;;19.90;9.75;;;1.20;99.90;;;;;;5016909;28;20064;-57
2021/01/25 08:12:43;;;;;;;19.88;10.02;;;1.10;99.90;;;;;;5031403;28;20091;-56
2021/01/25 08:15:34;;;;;;;22.45;9.90;;;1.20;99.90;;;;;;5016238;28;20125;-57
2021/01/25 08:18:30;;;;;;;16.00;9.63;;;1.20;99.90;;;;;;5029671;28;20037;-56
2021/01/25 08:21:26;;;;;;;15.80;9.15;;;1.30;99.90;;;;;;5019044;28;20029;-57
2021/01/25 08:24:13;;;;;;;18.13;9.63;;;1.20;99.90;;;;;;5030887;28;20044;-54
2021/01/25 08:27:14;;;;;;;19.60;9.48;;;1.30;99.90;;;;;;5020614;28;20043;-57
2021/01/25 08:30:13;;;;;;;17.52;10.20;;;1.40;99.90;;;;;;5035439;28;20108;-57
2021/01/25 08:33:02;;;;;;;17.42;9.13;;;1.50;99.90;;;;;;5035759;28;20056;-57
2021/01/25 08:35:50;;;;;;;17.05;10.32;;;1.70;99.90;;;;;;5035083;28;20030;-56
2021/01/25 08:38:42;;;;;;;20.88;10.23;;;1.70;99.90;;;;;;5035777;28;20033;-55
2021/01/25 08:41:33;;;;;;;20.50;9.77;;;1.80;99.90;;;;;;5034908;28;20172;-55
2021/01/25 08:44:23;;;;;;;18.38;10.43;;;1.90;99.90;;;;;;5020828;28;20433;-54
2021/01/25 08:47:10;;;;;;;18.55;9.80;;;1.90;99.90;;;;;;5020712;28;20036;-54
2021/01/25 08:49:57;;;;;;;20.05;9.73;;;1.80;99.90;;;;;;5034408;28;20041;-57
2021/01/25 08:52:44;;;;;;;22.33;10.75;;;2.00;99.90;;;;;;5033760;28;20064;-53
2021/01/25 08:55:43;;;;;;;16.02;9.02;;;2.00;99.90;;;;;;5019502;28;20033;-55
2021/01/25 08:58:30;;;;;;;16.85;9.05;;;2.20;99.90;;;;;;5033998;28;20092;-57
2021/01/25 09:01:29;;;;;;;17.52;9.30;;;2.00;99.90;;;;;;5034801;28;20046;-58
2021/01/25 09:04:15;;;;;;;19.80;10.32;;;1.80;99.90;;;;;;5019811;28;20037;-57
2021/01/25 09:07:01;;;;;;;21.02;10.02;;;1.90;99.90;;;;;;5033162;28;20470;-54
2021/01/25 09:09:47;;;;;;;17.30;9.52;;;2.10;99.90;;;;;;5035294;28;20478;-55
2021/01/25 09:12:33;;;;;;;19.05;10.27;;;2.10;99.90;;;;;;5033777;28;20064;-58
2021/01/25 09:15:20;;;;;;;17.67;9.55;;;2.10;99.90;;;;;;5032961;28;20033;-56
2021/01/25 09:18:09;;;;;;;20.38;10.45;;;2.10;99.90;;;;;;5034360;28;20025;-56
2021/01/25 09:20:55;;;;;;;21.27;10.15;;;2.10;99.90;;;;;;5034706;28;20045;-59
2021/01/25 09:23:41;;;;;;;16.70;10.05;;;2.20;99.90;;;;;;5035270;28;20041;-57
2021/01/25 09:26:28;;;;;;;17.75;9.95;;;2.20;99.90;;;;;;5033253;28;20045;-59
2021/01/25 09:29:14;;;;;;;19.40;9.60;;;2.20;99.90;;;;;;5034641;28;20368;-54
2021/01/25 09:32:00;;;;;;;19.38;9.48;;;2.30;99.90;;;;;;5032716;28;20060;-55
2021/01/25 09:34:46;;;;;;;22.55;10.98;;;2.40;99.90;;;;;;5035433;28;20033;-56
2021/01/25 09:37:32;;;;;;;17.23;9.70;;;2.50;99.90;;;;;;5018610;28;20478;-57
2021/01/25 09:40:19;;;;;;;18.83;9.88;;;2.30;99.90;;;;;;5034454;28;20124;-58
2021/01/25 09:43:05;;;;;;;17.67;10.20;;;2.50;99.90;;;;;;5034065;28;20574;-58
2021/01/25 09:45:51;;;;;;;19.63;10.20;;;2.90;99.90;;;;;;5034053;28;20095;-58
2021/01/25 09:48:37;;;;;;;17.80;9.43;;;2.90;99.90;;;;;;5033337;28;20040;-57
2021/01/25 09:51:23;;;;;;;19.13;10.05;;;2.90;99.90;;;;;;5034467;28;20065;-57
2021/01/25 09:54:09;;;;;;;13.18;8.02;;;2.80;99.90;;;;;;5034552;28;20049;-57
2021/01/25 09:56:56;;;;;;;19.50;9.98;;;2.90;99.90;;;;;;5033708;28;20116;-57
2021/01/25 09:59:42;;;;;;;16.67;9.43;;;2.90;99.90;;;;;;5034204;28;20128;-57
2021/01/25 10:02:28;;;;;;;18.65;9.35;;;2.80;99.90;;;;;;5034037;28;20429;-56
2021/01/25 10:05:15;;;;;;;17.17;8.50;;;2.80;99.90;;;;;;5033370;28;20055;-59
2021/01/25 10:08:51;;;;;;;15.77;8.70;;;2.70;99.90;;;;;;5026810;28;20486;-58
2021/01/25 10:11:37;;;;;;;16.67;8.40;;;2.90;99.90;;;;;;5014127;28;20049;-57
2021/01/25 10:14:23;;;;;;;16.13;8.40;;;2.80;99.90;;;;;;5014123;28;20045;-59
2021/01/25 10:17:09;;;;;;;13.88;7.85;;;2.70;99.90;;;;;;5024323;28;20045;-57
2021/01/25 10:19:56;;;;;;;17.83;8.90;;;2.60;99.90;;;;;;5032523;28;20048;-58
2021/01/25 10:22:42;;;;;;;17.33;8.38;;;2.70;99.90;;;;;;5032441;28;20111;-58
2021/01/25 10:25:28;;;;;;;15.82;7.88;;;2.50;99.90;;;;;;5032130;28;20061;-58
2021/01/25 10:28:15;;;;;;;13.30;7.00;;;2.60;99.90;;;;;;5032909;28;20120;-59
2021/01/25 10:31:01;;;;;;;16.30;8.18;;;2.70;99.90;;;;;;5033658;28;20103;-58
2021/01/25 10:33:48;;;;;;;14.40;7.95;;;2.70;99.90;;;;;;5018094;28;20041;-58
2021/01/25 10:36:34;;;;;;;13.05;7.53;;;2.60;99.90;;;;;;5033101;28;20036;-58
2021/01/25 10:39:20;;;;;;;13.10;7.15;;;2.60;99.90;;;;;;5033936;28;20478;-58
2021/01/25 10:42:06;;;;;;;16.60;8.73;;;2.50;99.90;;;;;;5033926;28;20073;-59
2021/01/25 10:44:52;;;;;;;14.13;7.75;;;2.50;99.90;;;;;;5033561;28;20116;-60
2021/01/25 10:47:39;;;;;;;15.55;9.35;;;2.70;99.90;;;;;;5032151;28;20508;-59
2021/01/25 10:50:25;;;;;;;16.08;7.82;;;2.70;99.90;;;;;;5033939;28;20073;-58
2021/01/25 10:53:11;;;;;;;15.88;9.05;;;2.70;99.90;;;;;;5032354;28;20159;-58
2021/01/25 10:55:57;;;;;;;17.92;8.65;;;2.50;99.90;;;;;;5032754;28;20374;-60
2021/01/25 10:58:43;;;;;;;16.35;9.35;;;2.60;99.90;;;;;;5032525;28;20037;-60
2021/01/25 11:01:29;;;;;;;17.88;8.82;;;2.70;99.90;;;;;;5032583;28;20052;-59
2021/01/25 11:04:15;;;;;;;25.08;11.25;;;2.80;99.90;;;;;;5033253;28;20076;-58
2021/01/25 11:07:03;;;;;;;16.67;8.70;;;2.70;99.90;;;;;;5032851;28;20036;-59
2021/01/25 11:09:50;;;;;;;16.58;8.75;;;2.60;99.90;;;;;;5018294;28;20041;-60
2021/01/25 11:12:36;;;;;;;16.15;9.30;;;2.70;99.90;;;;;;5032428;28;20037;-60
2021/01/25 11:15:22;;;;;;;15.32;8.60;;;2.80;99.90;;;;;;5032695;28;20037;-60
2021/01/25 11:18:09;;;;;;;18.25;9.10;;;2.80;99.90;;;;;;5013313;28;20042;-60
2021/01/25 11:20:58;;;;;;;20.60;11.05;;;2.80;99.90;;;;;;5012424;28;20394;-59
2021/01/25 11:23:44;;;;;;;21.58;10.90;;;2.80;99.90;;;;;;5013392;28;20028;-59
2021/01/25 11:26:34;;;;;;;20.77;11.32;;;2.80;99.90;;;;;;5011952;28;20097;-60
2021/01/25 11:29:21;;;;;;;21.48;11.45;;;2.80;99.90;;;;;;5012459;28;20034;-60
2021/01/25 11:32:07;;;;;;;20.67;11.48;;;2.80;99.90;;;;;;5012791;28;20044;-59
2021/01/25 11:34:53;;;;;;;20.10;10.57;;;2.90;99.90;;;;;;5012686;28;20120;-60
2021/01/25 11:37:39;;;;;;;22.85;11.05;;;2.90;99.90;;;;;;5011480;28;20049;-60
2021/01/25 11:40:25;;;;;;;23.25;10.43;;;2.80;99.90;;;;;;5011992;28;20026;-60
2021/01/25 11:43:11;;;;;;;24.75;13.13;;;2.70;99.90;;;;;;5011203;28;20509;-60
2021/01/25 11:45:57;;;;;;;24.45;12.60;;;2.80;99.90;;;;;;5012975;28;20041;-60
2021/01/25 11:48:43;;;;;;;23.67;12.38;;;2.80;99.90;;;;;;5031060;28;20060;-60
2021/01/25 11:51:29;;;;;;;22.75;12.70;;;2.90;99.90;;;;;;5030153;28;20037;-60
2021/01/25 11:54:15;;;;;;;21.92;11.88;;;3.00;99.90;;;;;;5030278;28;20033;-60
2021/01/25 11:57:01;;;;;;;26.17;13.10;;;3.00;99.90;;;;;;5030277;28;20149;-59
2021/01/25 11:59:47;;;;;;;23.58;12.45;;;2.90;99.90;;;;;;5031306;28;20045;-59
2021/01/25 12:02:33;;;;;;;25.15;12.32;;;2.80;99.90;;;;;;5031039;28;20040;-59
2021/01/25 12:05:19;;;;;;;24.63;13.25;;;2.90;99.90;;;;;;5031796;28;20461;-59
2021/01/25 12:08:05;;;;;;;27.15;12.73;;;2.90;99.90;;;;;;5017795;28;20040;-61
2021/01/25 12:10:52;;;;;;;25.90;12.55;;;2.90;99.90;;;;;;5032168;28;20052;-60
2021/01/25 12:13:39;;;;;;;27.17;12.55;;;3.00;99.90;;;;;;5030182;28;20041;-60
2021/01/25 12:16:25;;;;;;;25.52;12.70;;;2.90;99.90;;;;;;5013151;28;20042;-59
2021/01/25 12:19:11;;;;;;;28.48;14.20;;;2.90;99.90;;;;;;5012247;28;20104;-60
2021/01/25 12:21:57;;;;;;;40.03;17.95;;;2.90;99.90;;;;;;5010601;28;20479;-60
2021/01/25 12:24:43;;;;;;;25.45;13.27;;;2.90;99.90;;;;;;5011509;28;20112;-59
2021/01/25 12:27:30;;;;;;;26.65;13.82;;;2.90;99.90;;;;;;5011115;28;20048;-60
2021/01/25 12:30:16;;;;;;;25.92;13.23;;;2.90;99.90;;;;;;5010870;28;20022;-60
2021/01/25 12:33:03;;;;;;;26.63;13.20;;;2.90;99.90;;;;;;5011301;28;20458;-60
2021/01/25 12:35:49;;;;;;;30.42;13.98;;;2.80;99.90;;;;;;5011343;28;20038;-61
2021/01/25 12:38:36;;;;;;;26.67;12.52;;;2.80;99.90;;;;;;5012154;28;20033;-60
2021/01/25 12:41:23;;;;;;;23.90;11.77;;;2.90;99.90;;;;;;5012272;28;20027;-60
2021/01/25 12:44:09;;;;;;;22.42;11.20;;;2.90;99.90;;;;;;5010567;28;20125;-61
2021/01/25 12:46:55;;;;;;;25.25;10.95;;;2.90;99.90;;;;;;5019429;28;20072;-61
2021/01/25 12:49:41;;;;;;;22.60;10.90;;;3.00;99.90;;;;;;5030164;28;20509;-60
2021/01/25 12:52:30;;;;;;;23.92;11.23;;;3.00;99.90;;;;;;5030346;28;20605;-60
2021/01/25 12:55:16;;;;;;;22.95;11.35;;;2.80;99.90;;;;;;5029931;28;20034;-59
2021/01/25 12:58:02;;;;;;;21.33;10.45;;;2.80;99.90;;;;;;5031057;28;20486;-60
2021/01/25 13:00:48;;;;;;;25.13;12.70;;;2.90;99.90;;;;;;5031126;28;20136;-60
2021/01/25 13:03:34;;;;;;;22.65;11.57;;;2.80;99.90;;;;;;5029969;28;20120;-60
2021/01/25 13:06:21;;;;;;;25.33;12.10;;;2.80;99.90;;;;;;5031086;28;20128;-60
2021/01/25 13:09:07;;;;;;;24.83;10.43;;;2.90;99.90;;;;;;5030633;28;20044;-59
2021/01/25 13:11:53;;;;;;;22.00;10.13;;;2.80;99.90;;;;;;5030954;28;20463;-59
2021/01/25 13:14:39;;;;;;;21.73;11.50;;;3.00;99.90;;;;;;5034322;28;20502;-60
2021/01/25 13:17:25;;;;;;;21.20;10.32;;;3.00;99.90;;;;;;5020653;28;20856;-60
2021/01/25 13:20:22;;;;;;;19.65;10.52;;;3.10;99.90;;;;;;5015944;28;20087;-60
2021/01/25 13:23:08;;;;;;;19.70;10.15;;;3.10;99.90;;;;;;5013755;28;20026;-61
2021/01/25 13:25:54;;;;;;;24.45;11.15;;;3.30;99.90;;;;;;5015394;28;20046;-60
2021/01/25 13:28:40;;;;;;;33.85;16.13;;;3.20;99.90;;;;;;5014264;28;20037;-60
2021/01/25 13:31:27;;;;;;;25.58;12.25;;;3.20;99.90;;;;;;5013579;28;20065;-60
2021/01/25 13:34:13;;;;;;;22.35;10.65;;;3.40;99.90;;;;;;5014139;28;20033;-60
2021/01/25 13:37:00;;;;;;;19.35;10.70;;;3.40;99.90;;;;;;5015273;28;20065;-60
2021/01/25 13:39:46;;;;;;;16.83;9.45;;;3.30;99.90;;;;;;5013972;28;20048;-60
2021/01/25 13:42:33;;;;;;;18.38;9.15;;;3.30;99.90;;;;;;5015112;28;20030;-60
2021/01/25 13:45:25;;;;;;;22.63;9.43;;;3.30;99.90;;;;;;4998869;28;20038;-60
2021/01/25 13:48:13;;;;;;;19.15;9.38;;;3.20;99.90;;;;;;5013710;28;20128;-61
2021/01/25 13:50:59;;;;;;;17.25;8.30;;;3.40;99.90;;;;;;5016360;28;20042;-60
2021/01/25 13:53:45;;;;;;;18.95;8.40;;;3.60;99.90;;;;;;5001046;28;20070;-60
2021/01/25 13:56:31;;;;;;;12.32;7.10;;;3.70;99.90;;;;;;5019509;28;20131;-61
2021/01/25 13:59:17;;;;;;;12.80;6.90;;;3.80;99.90;;;;;;5018668;28;20033;-60
2021/01/25 14:02:03;;;;;;;13.30;6.82;;;3.90;99.90;;;;;;5034262;28;20037;-60
2021/01/25 14:04:49;;;;;;;14.63;7.60;;;4.00;99.90;;;;;;5032841;28;20044;-61
2021/01/25 14:07:36;;;;;;;13.05;6.32;;;4.10;99.90;;;;;;5032976;28;20430;-61
2021/01/25 14:10:23;;;;;;;14.27;6.13;;;4.10;99.90;;;;;;5033606;28;20037;-61
2021/01/25 14:13:09;;;;;;;11.32;5.90;;;4.20;99.90;;;;;;5033657;28;20597;-60
2021/01/25 14:15:55;;;;;;;13.77;7.03;;;4.20;99.90;;;;;;5033733;28;20041;-59
2021/01/25 14:18:42;;;;;;;11.15;6.25;;;4.20;99.90;;;;;;5032578;28;20037;-60
2021/01/25 14:21:28;;;;;;;14.45;6.82;;;4.10;99.90;;;;;;5031462;28;20490;-60
2021/01/25 14:24:14;;;;;;;12.13;5.88;;;4.10;99.90;;;;;;5032353;28;20037;-61
2021/01/25 14:27:00;;;;;;;11.82;5.88;;;4.20;99.90;;;;;;5033691;28;20041;-60
2021/01/25 14:29:46;;;;;;;9.23;5.70;;;4.30;99.90;;;;;;5032384;28;20025;-60
2021/01/25 14:32:32;;;;;;;10.38;5.40;;;4.20;99.90;;;;;;5032851;28;20045;-60